Map

Track Data

SID SEASON NUMBER BASIN SUBBASIN NAME ISO_TIME NATURE LAT LON WMO_WIND WMO_PRES WMO_AGENCY TRACK_TYPE DIST2LAND LANDFALL IFLAG USA_AGENCY USA_ATCF_ID USA_LAT USA_LON USA_RECORD USA_STATUS USA_WIND USA_PRES USA_SSHS USA_R34_NE USA_R34_SE USA_R34_SW USA_R34_NW USA_R50_NE USA_R50_SE USA_R50_SW USA_R50_NW USA_R64_NE USA_R64_SE USA_R64_SW USA_R64_NW USA_POCI USA_ROCI USA_RMW USA_EYE TOKYO_LAT TOKYO_LON TOKYO_GRADE TOKYO_WIND TOKYO_PRES TOKYO_R50_DIR TOKYO_R50_LONG TOKYO_R50_SHORT TOKYO_R30_DIR TOKYO_R30_LONG TOKYO_R30_SHORT TOKYO_LAND CMA_LAT CMA_LON CMA_CAT CMA_WIND CMA_PRES HKO_LAT HKO_LON HKO_CAT HKO_WIND HKO_PRES NEWDELHI_LAT NEWDELHI_LON NEWDELHI_GRADE NEWDELHI_WIND NEWDELHI_PRES NEWDELHI_CI NEWDELHI_DP NEWDELHI_POCI REUNION_LAT REUNION_LON REUNION_TYPE REUNION_WIND REUNION_PRES REUNION_TNUM REUNION_CI REUNION_RMW REUNION_R34_NE REUNION_R34_SE REUNION_R34_SW REUNION_R34_NW REUNION_R50_NE REUNION_R50_SE REUNION_R50_SW REUNION_R50_NW REUNION_R64_NE REUNION_R64_SE REUNION_R64_SW REUNION_R64_NW BOM_LAT BOM_LON BOM_TYPE BOM_WIND BOM_PRES BOM_TNUM BOM_CI BOM_RMW BOM_R34_NE BOM_R34_SE BOM_R34_SW BOM_R34_NW BOM_R50_NE BOM_R50_SE BOM_R50_SW BOM_R50_NW BOM_R64_NE BOM_R64_SE BOM_R64_SW BOM_R64_NW BOM_ROCI BOM_POCI BOM_EYE BOM_POS_METHOD BOM_PRES_METHOD NADI_LAT NADI_LON NADI_CAT NADI_WIND NADI_PRES WELLINGTON_LAT WELLINGTON_LON WELLINGTON_WIND WELLINGTON_PRES DS824_LAT DS824_LON DS824_STAGE DS824_WIND DS824_PRES TD9636_LAT TD9636_LON TD9636_STAGE TD9636_WIND TD9636_PRES TD9635_LAT TD9635_LON TD9635_WIND TD9635_PRES TD9635_ROCI NEUMANN_LAT NEUMANN_LON NEUMANN_CLASS NEUMANN_WIND NEUMANN_PRES MLC_LAT MLC_LON MLC_CLASS MLC_WIND MLC_PRES USA_GUST BOM_GUST BOM_GUST_PER REUNION_GUST REUNION_GUST_PER USA_SEAHGT USA_SEARAD_NE USA_SEARAD_SE USA_SEARAD_SW USA_SEARAD_NW STORM_SPEED STORM_DIR
1986175N26273 1986 57 NA GM BONNIE 1986-06-23 18:00:00 TS 25.6000 -87.2000 25 1014 hurdat_atl main 423 411 O_____________ hurdat_atl AL021986 25.6000 -87.2000 TD 25 1014 -1 5 277
1986175N26273 1986 57 NA GM BONNIE 1986-06-23 21:00:00 TS 25.6326 -87.4975 main 411 390 P_____________ AL021986 25.6326 -87.4975 TD 25 1013 -1 6 280
1986175N26273 1986 57 NA GM BONNIE 1986-06-24 00:00:00 TS 25.7000 -87.8000 25 1013 hurdat_atl main 390 370 O_____________ hurdat_atl AL021986 25.7000 -87.8000 TD 25 1013 -1 6 290
1986175N26273 1986 57 NA GM BONNIE 1986-06-24 03:00:00 TS 25.8275 -88.1075 main 370 342 P_____________ AL021986 25.8275 -88.1075 TD 25 1013 -1 6 299
1986175N26273 1986 57 NA GM BONNIE 1986-06-24 06:00:00 TS 26.0000 -88.4000 25 1014 hurdat_atl main 342 316 O_____________ hurdat_atl AL021986 26.0000 -88.4000 TD 25 1014 -1 6 308
1986175N26273 1986 57 NA GM BONNIE 1986-06-24 09:00:00 TS 26.2074 -88.6500 main 316 290 P_____________ AL021986 26.2074 -88.6500 TD 27 1012 -1 6 312
1986175N26273 1986 57 NA GM BONNIE 1986-06-24 12:00:00 TS 26.4000 -88.9000 30 1011 hurdat_atl main 290 279 O_____________ hurdat_atl AL021986 26.4000 -88.9000 TD 30 1011 -1 6 304
1986175N26273 1986 57 NA GM BONNIE 1986-06-24 15:00:00 TS 26.5224 -89.1776 main 279 268 P_____________ AL021986 26.5224 -89.1776 TD 35 1008 0 6 290
1986175N26273 1986 57 NA GM BONNIE 1986-06-24 18:00:00 TS 26.6000 -89.5000 40 1006 hurdat_atl main 270 265 O_____________ hurdat_atl AL021986 26.6000 -89.5000 TS 40 1006 0 7 282
1986175N26273 1986 57 NA GM BONNIE 1986-06-24 21:00:00 TS 26.6576 -89.8926 main 268 267 P_____________ AL021986 26.6576 -89.8926 TS 42 1003 0 7 278
1986175N26273 1986 57 NA GM BONNIE 1986-06-25 00:00:00 TS 26.7000 -90.3000 45 1001 hurdat_atl main 268 267 O_____________ hurdat_atl AL021986 26.7000 -90.3000 TS 45 1001 0 7 276
1986175N26273 1986 57 NA GM BONNIE 1986-06-25 03:00:00 TS 26.7274 -90.6578 main 268 256 P_____________ AL021986 26.7274 -90.6578 TS 47 1001 0 6 279
1986175N26273 1986 57 NA GM BONNIE 1986-06-25 06:00:00 TS 26.8000 -91.0000 50 1002 hurdat_atl main 256 237 O_____________ hurdat_atl AL021986 26.8000 -91.0000 TS 50 1002 0 7 291
1986175N26273 1986 57 NA GM BONNIE 1986-06-25 09:00:00 TS 26.9700 -91.3649 main 239 222 P_____________ AL021986 26.9700 -91.3649 TS 52 999 0 7 303
1986175N26273 1986 57 NA GM BONNIE 1986-06-25 12:00:00 TS 27.2000 -91.7000 55 997 hurdat_atl main 226 213 O_____________ hurdat_atl AL021986 27.2000 -91.7000 TS 55 997 0 7 312
1986175N26273 1986 57 NA GM BONNIE 1986-06-25 15:00:00 TS 27.4423 -91.9503 main 218 198 P_____________ AL021986 27.4423 -91.9503 TS 60 999 0 7 318
1986175N26273 1986 57 NA GM BONNIE 1986-06-25 18:00:00 TS 27.7000 -92.2000 65 1001 hurdat_atl main 198 178 O_____________ hurdat_atl AL021986 27.7000 -92.2000 HU 65 1001 1 7 314
1986175N26273 1986 57 NA GM BONNIE 1986-06-25 21:00:00 TS 27.9275 -92.5279 main 179 156 P_____________ AL021986 27.9275 -92.5279 HU 67 1000 1 8 309
1986175N26273 1986 57 NA GM BONNIE 1986-06-26 00:00:00 TS 28.2000 -92.9000 70 999 hurdat_atl main 156 135 O_____________ hurdat_atl AL021986 28.2000 -92.9000 HU 70 999 1 9 313
1986175N26273 1986 57 NA GM BONNIE 1986-06-26 03:00:00 TS 28.5696 -93.2975 main 128 78 P_____________ AL021986 28.5696 -93.2975 HU 72 997 1 11 319
1986175N26273 1986 57 NA GM BONNIE 1986-06-26 06:00:00 TS 29.0000 -93.7000 75 995 hurdat_atl main 78 33 O_____________ hurdat_atl AL021986 29.0000 -93.7000 HU 75 995 1 11 321
1986175N26273 1986 57 NA GM BONNIE 1986-06-26 09:00:00 TS 29.4482 -94.1060 main 33 11 P_____________ AL021986 29.4482 -94.1060 HU 75 991 1 11 324
1986175N26273 1986 57 NA GM BONNIE 1986-06-26 10:00:00 TS 29.6000 -94.2000 75 990 hurdat_atl main 11 0 O_____________ hurdat_atl AL021986 29.6000 -94.2000 L HU 75 990 1 10 340
1986175N26273 1986 57 NA NA BONNIE 1986-06-26 12:00:00 TS 29.9000 -94.3000 65 992 hurdat_atl main 0 0 O_____________ hurdat_atl AL021986 29.9000 -94.3000 HU 65 992 1 10 341
1986175N26273 1986 57 NA NA BONNIE 1986-06-26 15:00:00 TS 30.3949 -94.5138 main 0 0 P_____________ AL021986 30.3949 -94.5138 HU 50 996 0 11 341
1986175N26273 1986 57 NA NA BONNIE 1986-06-26 18:00:00 TS 30.9000 -94.7000 35 1000 hurdat_atl main 0 0 O_____________ hurdat_atl AL021986 30.9000 -94.7000 TS 35 1000 0 10 349
1986175N26273 1986 57 NA NA BONNIE 1986-06-26 21:00:00 TS 31.3499 -94.7305 main 0 0 P_____________ AL021986 31.3499 -94.7305 TS 32 1004 -1 9 0
1986175N26273 1986 57 NA NA BONNIE 1986-06-27 00:00:00 TS 31.8000 -94.7000 30 1009 hurdat_atl main 0 0 O_____________ hurdat_atl AL021986 31.8000 -94.7000 TD 30 1009 -1 9 0
1986175N26273 1986 57 NA NA BONNIE 1986-06-27 03:00:00 TS 32.2850 -94.7295 main 0 0 P_____________ AL021986 32.2850 -94.7295 TD 27 1012 -1 10 1
1986175N26273 1986 57 NA NA BONNIE 1986-06-27 06:00:00 TS 32.8000 -94.7000 25 1015 hurdat_atl main 0 0 O_____________ hurdat_atl AL021986 32.8000 -94.7000 TD 25 1015 -1 11 8
1986175N26273 1986 57 NA NA BONNIE 1986-06-27 09:00:00 TS 33.3574 -94.5599 main 0 0 P_____________ AL021986 33.3574 -94.5599 TD 22 1015 -1 12 17
1986175N26273 1986 57 NA NA BONNIE 1986-06-27 12:00:00 TS 33.9000 -94.3000 20 1016 hurdat_atl main 0 0 O_____________ hurdat_atl AL021986 33.9000 -94.3000 TD 20 1016 -1 11 27
1986175N26273 1986 57 NA NA BONNIE 1986-06-27 15:00:00 TS 34.3724 -93.9448 main 0 0 P_____________ AL021986 34.3724 -93.9448 TD 20 1016 -1 11 36
1986175N26273 1986 57 NA NA BONNIE 1986-06-27 18:00:00 TS 34.8000 -93.5000 20 1016 hurdat_atl main 0 0 O_____________ hurdat_atl AL021986 34.8000 -93.5000 TD 20 1016 -1 11 42
1986175N26273 1986 57 NA NA BONNIE 1986-06-27 21:00:00 TS 35.1998 -93.0292 main 0 0 P_____________ AL021986 35.1998 -93.0292 TD 17 1015 -1 11 46
1986175N26273 1986 57 NA NA BONNIE 1986-06-28 00:00:00 TS 35.6000 -92.5000 15 1014 hurdat_atl main 0 0 O_____________ hurdat_atl AL021986 35.6000 -92.5000 TD 15 1014 -1 12 46
1986175N26273 1986 57 NA NA BONNIE 1986-06-28 03:00:00 TS 36.0573 -91.9225 main 0 0 P_____________ AL021986 36.0573 -91.9225 TD 12 1013 -1 13 47
1986175N26273 1986 57 NA NA BONNIE 1986-06-28 06:00:00 TS 36.5000 -91.3000 10 1013 hurdat_atl main 0 0 O_____________ hurdat_atl AL021986 36.5000 -91.3000 TD 10 1013 -1 13 51
1986175N26273 1986 57 NA NA BONNIE 1986-06-28 09:00:00 TS 36.8732 -90.6558 main 0 0 P_____________ AL021986 36.8732 -90.6558 TD 10 1012 -1 13 56
1986175N26273 1986 57 NA NA BONNIE 1986-06-28 12:00:00 TS 37.2000 -90.0000 10 1012 hurdat_atl main 0 O_____________ hurdat_atl AL021986 37.2000 -90.0000 TD 10 1012 -1 12 58

About IBTrACS Database

This database is a web-friendly format of International Best Track Archive for Climate Stewardship (IBTrACS), a global best track data archive curated by NOAA dating back to 1842.

Updated: 2021-10-19